Time;durP1;ratioP1;P1;durP2;ratioP2;P2;SDS_P1;SDS_P2;PMS_P1;PMS_P2;Temp;Humidity;BMP_temperature;BMP_pressure;BME280_temperature;BME280_humidity;BME280_pressure;Samples;Min_cycle;Max_cycle;Signal;HPM_P1;HPM_P2
2023/10/24 00:00:50;;;;;;;8.33;3.67;;;;;;;;;;5033835;28;20429;-57
2023/10/24 00:03:16;;;;;;;6.40;2.80;;;;;;;;;;5047080;28;21469;-57
2023/10/24 00:05:41;;;;;;;8.33;2.83;;;;;;;;;;5048240;28;20436;-57
2023/10/24 00:08:06;;;;;;;6.60;3.27;;;;;;;;;;5045401;28;20421;-58
2023/10/24 00:10:32;;;;;;;8.00;4.10;;;;;;;;;;5046596;28;20405;-58
2023/10/24 00:12:57;;;;;;;6.30;3.10;;;;;;;;;;5047914;28;20932;-57
2023/10/24 00:15:22;;;;;;;8.50;3.10;;;;;;;;;;5045071;28;20735;-58
2023/10/24 00:17:48;;;;;;;5.93;3.27;;;;;;;;;;5046887;28;20484;-58
2023/10/24 00:20:13;;;;;;;6.87;3.60;;;;;;;;;;5046879;28;20412;-58
2023/10/24 00:22:38;;;;;;;7.53;4.10;;;;;;;;;;5046334;28;20469;-57
2023/10/24 00:25:05;;;;;;;7.45;3.83;;;;;;;;;;5045884;28;20480;-58
2023/10/24 00:27:30;;;;;;;5.63;3.20;;;;;;;;;;5047473;28;20394;-57
2023/10/24 00:29:55;;;;;;;6.97;3.70;;;;;;;;;;5046806;28;20424;-58
2023/10/24 00:32:20;;;;;;;6.30;3.40;;;;;;;;;;5044878;28;20407;-58
2023/10/24 00:34:46;;;;;;;9.53;4.00;;;;;;;;;;5047803;28;20405;-57
2023/10/24 00:37:11;;;;;;;7.30;3.70;;;;;;;;;;5042717;28;20450;-57
2023/10/24 00:39:36;;;;;;;7.33;3.23;;;;;;;;;;5025245;28;21623;-57
2023/10/24 00:42:04;;;;;;;7.78;3.65;;;;;;;;;;5024104;28;20445;-58
2023/10/24 00:44:31;;;;;;;7.87;4.17;;;;;;;;;;5024376;28;20878;-57
2023/10/24 00:46:56;;;;;;;8.10;3.35;;;;;;;;;;5026564;28;20417;-58
2023/10/24 00:49:22;;;;;;;6.23;3.20;;;;;;;;;;5022945;28;21221;-57
2023/10/24 00:51:47;;;;;;;7.00;3.57;;;;;;;;;;5016660;28;20530;-57
2023/10/24 00:54:12;;;;;;;6.70;3.30;;;;;;;;;;5018855;28;20398;-58
2023/10/24 00:56:38;;;;;;;7.50;4.00;;;;;;;;;;5018170;28;20427;-57
2023/10/24 00:59:03;;;;;;;7.30;4.17;;;;;;;;;;5006625;28;20402;-57
2023/10/24 01:01:28;;;;;;;6.73;4.40;;;;;;;;;;5013843;28;21191;-57
2023/10/24 01:03:54;;;;;;;9.27;4.80;;;;;;;;;;5005168;28;20423;-57
2023/10/24 01:06:19;;;;;;;6.67;4.50;;;;;;;;;;5001310;28;20928;-57
2023/10/24 01:08:44;;;;;;;7.30;4.43;;;;;;;;;;5004236;28;20405;-58
2023/10/24 01:11:10;;;;;;;10.60;5.27;;;;;;;;;;5005322;28;20452;-58
2023/10/24 01:13:35;;;;;;;7.38;3.78;;;;;;;;;;4998347;28;20419;-58
2023/10/24 01:16:00;;;;;;;8.40;5.00;;;;;;;;;;4997582;28;20412;-58
2023/10/24 01:18:26;;;;;;;9.27;5.00;;;;;;;;;;4998851;28;20404;-58
2023/10/24 01:20:51;;;;;;;8.37;4.63;;;;;;;;;;5002197;28;20596;-57
2023/10/24 01:23:17;;;;;;;8.02;4.30;;;;;;;;;;5004010;28;20413;-58
2023/10/24 01:25:42;;;;;;;8.40;4.40;;;;;;;;;;5007364;28;20400;-58
2023/10/24 01:28:08;;;;;;;8.03;4.70;;;;;;;;;;5003100;28;20414;-58
2023/10/24 01:30:33;;;;;;;9.20;5.80;;;;;;;;;;5004336;28;20940;-58
2023/10/24 01:32:59;;;;;;;8.27;5.57;;;;;;;;;;5006892;28;20802;-58
2023/10/24 01:35:24;;;;;;;7.60;4.97;;;;;;;;;;5000082;28;20771;-57
2023/10/24 01:37:50;;;;;;;9.80;5.77;;;;;;;;;;4997103;28;20412;-57
2023/10/24 01:40:15;;;;;;;9.20;5.20;;;;;;;;;;5019651;28;20415;-57
2023/10/24 01:42:40;;;;;;;10.88;6.30;;;;;;;;;;5026095;28;20415;-57
2023/10/24 01:45:06;;;;;;;8.13;5.30;;;;;;;;;;5026798;28;20485;-58
2023/10/24 01:47:31;;;;;;;8.27;5.23;;;;;;;;;;5025108;28;21194;-58
2023/10/24 01:49:56;;;;;;;11.30;6.17;;;;;;;;;;5025574;28;20450;-57
2023/10/24 01:52:22;;;;;;;9.27;5.57;;;;;;;;;;5026484;28;20541;-58
2023/10/24 01:54:47;;;;;;;8.25;4.90;;;;;;;;;;5027230;28;20398;-58
2023/10/24 01:57:12;;;;;;;8.00;5.00;;;;;;;;;;5029133;28;20418;-58
2023/10/24 01:59:37;;;;;;;8.53;4.90;;;;;;;;;;5024932;28;20549;-58
2023/10/24 02:02:03;;;;;;;8.10;5.40;;;;;;;;;;5056476;28;20422;-58
2023/10/24 02:04:28;;;;;;;9.47;6.07;;;;;;;;;;5062939;28;20920;-57
2023/10/24 02:06:54;;;;;;;7.80;4.60;;;;;;;;;;5058456;28;20496;-58
2023/10/24 02:09:19;;;;;;;7.47;4.80;;;;;;;;;;5060990;28;20442;-57
2023/10/24 02:11:44;;;;;;;8.33;4.73;;;;;;;;;;5063733;28;20399;-57
2023/10/24 02:14:09;;;;;;;7.40;4.55;;;;;;;;;;5068797;28;20388;-58
2023/10/24 02:16:35;;;;;;;7.30;4.15;;;;;;;;;;5028795;28;20410;-58
2023/10/24 02:19:00;;;;;;;7.17;4.70;;;;;;;;;;5045144;28;20476;-57
2023/10/24 02:21:25;;;;;;;6.40;3.67;;;;;;;;;;5048904;28;20389;-57
2023/10/24 02:23:51;;;;;;;6.97;3.73;;;;;;;;;;5048375;28;20413;-58
2023/10/24 02:26:16;;;;;;;5.53;3.47;;;;;;;;;;5048744;28;20394;-57
2023/10/24 02:28:41;;;;;;;5.63;3.40;;;;;;;;;;5049346;28;20417;-57
2023/10/24 02:31:07;;;;;;;7.67;3.40;;;;;;;;;;5047866;28;20467;-58
2023/10/24 02:33:32;;;;;;;4.60;2.77;;;;;;;;;;5050603;28;20939;-57
2023/10/24 02:36:07;;;;;;;5.83;2.93;;;;;;;;;;5048689;28;20398;-57
2023/10/24 02:38:33;;;;;;;4.78;2.90;;;;;;;;;;5015329;28;20399;-57
2023/10/24 02:40:58;;;;;;;4.67;3.10;;;;;;;;;;5022959;28;20387;-57
2023/10/24 02:43:23;;;;;;;6.13;3.10;;;;;;;;;;5022427;28;20391;-57
2023/10/24 02:45:49;;;;;;;6.27;3.20;;;;;;;;;;5022532;28;20422;-57
2023/10/24 02:48:14;;;;;;;6.33;3.43;;;;;;;;;;5022655;28;20423;-57
2023/10/24 02:50:41;;;;;;;5.73;2.97;;;;;;;;;;5023215;28;20754;-57
2023/10/24 02:53:07;;;;;;;5.53;3.20;;;;;;;;;;5037660;28;20395;-58
2023/10/24 02:55:33;;;;;;;4.38;2.80;;;;;;;;;;5017897;28;20398;-57
2023/10/24 02:57:59;;;;;;;4.90;2.80;;;;;;;;;;5015294;28;20395;-57
2023/10/24 03:00:24;;;;;;;5.93;2.95;;;;;;;;;;5028909;28;20434;-57
2023/10/24 03:02:49;;;;;;;4.80;2.80;;;;;;;;;;5019699;28;20403;-58
2023/10/24 03:05:15;;;;;;;5.77;2.90;;;;;;;;;;5020593;28;20426;-57
2023/10/24 03:07:40;;;;;;;5.50;2.97;;;;;;;;;;5022369;28;20391;-57
2023/10/24 03:10:05;;;;;;;5.20;3.10;;;;;;;;;;5019126;28;20418;-57
2023/10/24 03:12:31;;;;;;;5.80;2.90;;;;;;;;;;5021265;28;21051;-57
2023/10/24 03:14:56;;;;;;;5.03;2.90;;;;;;;;;;5015319;28;20920;-57
2023/10/24 03:17:21;;;;;;;6.63;3.13;;;;;;;;;;4999839;28;20474;-57
2023/10/24 03:19:47;;;;;;;5.60;3.43;;;;;;;;;;4994703;28;20400;-57
2023/10/24 03:22:12;;;;;;;6.57;3.30;;;;;;;;;;4994322;28;20397;-57
2023/10/24 03:24:37;;;;;;;6.50;3.30;;;;;;;;;;5015454;28;20394;-57
2023/10/24 03:27:03;;;;;;;4.77;3.00;;;;;;;;;;5020382;28;20407;-58
2023/10/24 03:29:28;;;;;;;5.43;3.63;;;;;;;;;;5018010;28;20749;-57
2023/10/24 03:31:53;;;;;;;6.33;3.83;;;;;;;;;;5001927;28;20417;-57
2023/10/24 03:34:19;;;;;;;6.17;3.60;;;;;;;;;;5001133;28;20933;-57
2023/10/24 03:36:44;;;;;;;6.10;3.60;;;;;;;;;;5002024;28;20942;-57
2023/10/24 03:39:09;;;;;;;6.10;3.73;;;;;;;;;;5001688;28;20400;-57
2023/10/24 03:41:35;;;;;;;5.93;3.80;;;;;;;;;;4994249;28;20490;-57
2023/10/24 03:44:00;;;;;;;6.75;3.58;;;;;;;;;;4994064;28;20417;-57
2023/10/24 03:46:25;;;;;;;4.30;2.93;;;;;;;;;;4993599;28;21169;-57
2023/10/24 03:48:51;;;;;;;6.03;3.37;;;;;;;;;;5010113;28;20417;-56
2023/10/24 03:51:16;;;;;;;5.13;3.30;;;;;;;;;;5020722;28;20396;-56
2023/10/24 03:53:41;;;;;;;5.00;3.10;;;;;;;;;;5021423;28;20403;-57
2023/10/24 03:56:06;;;;;;;4.17;3.00;;;;;;;;;;5014972;28;20412;-57
2023/10/24 03:58:32;;;;;;;5.37;3.30;;;;;;;;;;5002239;28;20408;-57
2023/10/24 04:01:01;;;;;;;4.45;3.03;;;;;;;;;;5013981;28;20405;-57
2023/10/24 04:03:26;;;;;;;4.75;3.22;;;;;;;;;;5019186;28;20380;-57
2023/10/24 04:05:52;;;;;;;4.87;2.97;;;;;;;;;;5020105;28;20411;-57
2023/10/24 04:08:17;;;;;;;4.27;3.00;;;;;;;;;;5017421;28;20450;-56
2023/10/24 04:10:42;;;;;;;4.70;2.97;;;;;;;;;;5020941;28;20484;-56
2023/10/24 04:13:08;;;;;;;5.50;3.20;;;;;;;;;;5026571;28;20399;-57
2023/10/24 04:15:33;;;;;;;4.80;3.15;;;;;;;;;;5025359;28;20478;-57
2023/10/24 04:17:58;;;;;;;3.50;2.60;;;;;;;;;;5025556;28;20402;-57
2023/10/24 04:20:23;;;;;;;4.40;2.90;;;;;;;;;;5025242;28;20383;-57
2023/10/24 04:22:49;;;;;;;4.57;2.93;;;;;;;;;;5026458;28;20436;-57
2023/10/24 04:25:15;;;;;;;4.80;2.97;;;;;;;;;;5021872;28;20398;-57
2023/10/24 04:27:40;;;;;;;4.70;2.80;;;;;;;;;;5018261;28;20479;-57
2023/10/24 04:30:06;;;;;;;5.10;2.90;;;;;;;;;;5017793;28;20417;-55
2023/10/24 04:32:31;;;;;;;4.32;2.70;;;;;;;;;;5019098;28;21519;-57
2023/10/24 04:34:57;;;;;;;4.90;3.20;;;;;;;;;;5025223;28;20443;-57
2023/10/24 04:37:22;;;;;;;4.50;3.00;;;;;;;;;;5025522;28;20393;-57
2023/10/24 04:39:47;;;;;;;4.33;3.10;;;;;;;;;;5024683;28;20418;-57
2023/10/24 04:42:13;;;;;;;4.83;3.07;;;;;;;;;;5023959;28;20485;-57
2023/10/24 04:44:38;;;;;;;4.28;3.20;;;;;;;;;;5026571;28;21083;-57
2023/10/24 04:47:04;;;;;;;4.53;3.00;;;;;;;;;;5024073;28;20417;-57
2023/10/24 04:49:29;;;;;;;4.45;3.13;;;;;;;;;;5017530;28;20919;-56
2023/10/24 04:51:54;;;;;;;4.50;3.00;;;;;;;;;;5018065;28;20440;-56
2023/10/24 04:54:20;;;;;;;4.57;3.07;;;;;;;;;;5016950;28;20628;-56
2023/10/24 04:56:45;;;;;;;5.30;3.07;;;;;;;;;;5023012;28;20769;-57
2023/10/24 04:59:10;;;;;;;5.30;3.27;;;;;;;;;;5025219;28;20403;-57
2023/10/24 05:01:42;;;;;;;4.97;3.30;;;;;;;;;;5030966;28;20501;-57
2023/10/24 05:04:07;;;;;;;3.63;2.90;;;;;;;;;;5024087;28;20444;-56
2023/10/24 05:06:33;;;;;;;4.97;3.00;;;;;;;;;;5024824;28;20482;-57
2023/10/24 05:08:59;;;;;;;3.92;3.05;;;;;;;;;;5026152;28;20411;-56
2023/10/24 05:11:24;;;;;;;4.28;3.00;;;;;;;;;;5018715;28;21113;-56
2023/10/24 05:13:49;;;;;;;4.73;3.03;;;;;;;;;;5016390;28;20399;-57
2023/10/24 05:16:15;;;;;;;4.33;3.10;;;;;;;;;;5018010;28;20416;-57
2023/10/24 05:18:40;;;;;;;4.63;3.20;;;;;;;;;;5022289;28;20407;-56
2023/10/24 05:21:05;;;;;;;5.38;3.22;;;;;;;;;;5022752;28;20479;-57
2023/10/24 05:23:31;;;;;;;6.07;3.00;;;;;;;;;;5026862;28;20414;-56
2023/10/24 05:25:56;;;;;;;4.67;3.20;;;;;;;;;;5027143;28;20412;-56
2023/10/24 05:28:21;;;;;;;5.17;3.40;;;;;;;;;;5036978;28;20420;-56
2023/10/24 05:30:47;;;;;;;9.33;4.07;;;;;;;;;;5044930;28;20543;-57
2023/10/24 05:33:12;;;;;;;5.07;3.27;;;;;;;;;;5046069;28;20409;-57
2023/10/24 05:35:37;;;;;;;5.53;3.40;;;;;;;;;;5047402;28;20744;-56
2023/10/24 05:38:02;;;;;;;5.70;3.72;;;;;;;;;;5042924;28;20544;-56
2023/10/24 05:40:28;;;;;;;5.47;3.80;;;;;;;;;;5042015;28;20412;-56
2023/10/24 05:42:53;;;;;;;7.57;5.10;;;;;;;;;;5042502;28;20413;-56
2023/10/24 05:45:21;;;;;;;5.43;3.70;;;;;;;;;;5042512;28;20412;-57
2023/10/24 05:47:47;;;;;;;5.88;4.10;;;;;;;;;;5040957;28;20409;-56
2023/10/24 05:50:12;;;;;;;5.93;4.10;;;;;;;;;;5040101;28;20440;-57
2023/10/24 05:52:37;;;;;;;4.78;3.88;;;;;;;;;;5040905;28;20395;-56
2023/10/24 05:55:03;;;;;;;5.40;3.80;;;;;;;;;;5040337;28;21517;-56
2023/10/24 05:57:28;;;;;;;5.03;3.70;;;;;;;;;;5040368;28;20413;-56
2023/10/24 05:59:54;;;;;;;6.10;3.83;;;;;;;;;;5039553;28;20403;-56
2023/10/24 06:02:19;;;;;;;5.35;3.75;;;;;;;;;;5041117;28;20449;-56
2023/10/24 06:04:45;;;;;;;5.90;3.70;;;;;;;;;;5040098;28;20414;-56
2023/10/24 06:07:10;;;;;;;6.30;4.30;;;;;;;;;;5043047;28;20486;-56
2023/10/24 06:09:35;;;;;;;4.87;3.60;;;;;;;;;;5045584;28;20422;-56
2023/10/24 06:12:01;;;;;;;5.63;3.90;;;;;;;;;;5045961;28;20471;-58
2023/10/24 06:14:26;;;;;;;5.40;4.00;;;;;;;;;;5045913;28;20803;-56
2023/10/24 06:16:52;;;;;;;6.07;4.40;;;;;;;;;;5041071;28;20408;-56
2023/10/24 06:19:17;;;;;;;5.37;4.00;;;;;;;;;;5041002;28;20405;-56
2023/10/24 06:21:42;;;;;;;6.82;4.45;;;;;;;;;;5048952;28;20412;-56
2023/10/24 06:24:07;;;;;;;5.60;4.50;;;;;;;;;;5047179;28;20432;-57
2023/10/24 06:26:33;;;;;;;5.53;4.53;;;;;;;;;;5049113;28;20397;-57
2023/10/24 06:28:58;;;;;;;6.60;4.50;;;;;;;;;;5045444;28;20916;-56
2023/10/24 06:31:23;;;;;;;5.07;4.20;;;;;;;;;;5050918;28;20465;-56
2023/10/24 06:33:49;;;;;;;5.47;4.40;;;;;;;;;;5051747;28;20719;-56
2023/10/24 06:36:14;;;;;;;5.80;4.37;;;;;;;;;;5051406;28;20414;-57
2023/10/24 06:38:39;;;;;;;5.20;4.00;;;;;;;;;;5052557;28;20405;-56
2023/10/24 06:41:06;;;;;;;5.85;4.40;;;;;;;;;;5045915;28;20441;-57
2023/10/24 06:43:31;;;;;;;5.03;4.10;;;;;;;;;;5050481;28;20397;-56
2023/10/24 06:45:57;;;;;;;5.07;4.25;;;;;;;;;;5052686;28;20401;-57
2023/10/24 06:48:22;;;;;;;9.40;7.63;;;;;;;;;;5046729;28;20390;-56
2023/10/24 06:50:48;;;;;;;5.67;4.13;;;;;;;;;;5050287;28;20757;-56
2023/10/24 06:53:13;;;;;;;4.77;3.80;;;;;;;;;;5052015;28;20504;-56
2023/10/24 06:55:39;;;;;;;5.22;3.65;;;;;;;;;;5052026;28;20385;-56
2023/10/24 06:58:04;;;;;;;4.80;3.73;;;;;;;;;;5046437;28;20401;-56
2023/10/24 07:00:30;;;;;;;5.60;4.00;;;;;;;;;;5051424;28;20402;-57
2023/10/24 07:02:55;;;;;;;5.30;3.95;;;;;;;;;;5052233;28;20402;-56
2023/10/24 07:05:21;;;;;;;5.70;3.93;;;;;;;;;;5045558;28;20451;-56
2023/10/24 07:07:46;;;;;;;5.30;4.30;;;;;;;;;;5051870;28;20806;-57
2023/10/24 07:10:11;;;;;;;6.27;4.23;;;;;;;;;;5051529;28;20413;-56
2023/10/24 07:12:36;;;;;;;5.93;4.20;;;;;;;;;;5050125;28;20393;-56
2023/10/24 07:15:03;;;;;;;4.60;3.70;;;;;;;;;;5051262;28;20785;-57
2023/10/24 07:17:30;;;;;;;4.72;3.60;;;;;;;;;;5051731;28;20507;-56
2023/10/24 07:19:56;;;;;;;5.15;3.80;;;;;;;;;;5048800;28;20401;-56
2023/10/24 07:22:21;;;;;;;4.82;3.53;;;;;;;;;;5050588;28;20373;-56
2023/10/24 07:24:46;;;;;;;4.93;3.60;;;;;;;;;;5051919;28;20412;-56
2023/10/24 07:27:12;;;;;;;4.37;3.43;;;;;;;;;;5050578;28;20484;-56
2023/10/24 07:29:37;;;;;;;5.03;3.43;;;;;;;;;;5051176;28;20413;-56
2023/10/24 07:32:03;;;;;;;5.10;3.60;;;;;;;;;;5049567;28;20800;-57
2023/10/24 07:34:32;;;;;;;4.45;3.20;;;;;;;;;;5050498;28;20401;-57
2023/10/24 07:36:58;;;;;;;4.45;2.92;;;;;;;;;;5048802;28;20916;-56
2023/10/24 07:39:23;;;;;;;4.23;3.30;;;;;;;;;;5047929;28;20381;-56
2023/10/24 07:41:49;;;;;;;5.33;3.10;;;;;;;;;;5046878;28;20398;-56
2023/10/24 07:44:14;;;;;;;4.28;3.05;;;;;;;;;;5048224;28;20417;-56
2023/10/24 07:46:40;;;;;;;3.95;2.92;;;;;;;;;;5047473;28;20406;-56
2023/10/24 07:49:05;;;;;;;4.40;3.03;;;;;;;;;;5045829;28;20946;-57
2023/10/24 07:51:31;;;;;;;5.00;3.03;;;;;;;;;;5048628;28;20777;-57
2023/10/24 07:53:57;;;;;;;4.53;3.05;;;;;;;;;;5046481;28;20420;-56
2023/10/24 07:56:22;;;;;;;4.57;2.80;;;;;;;;;;5045545;28;20405;-57
2023/10/24 07:58:47;;;;;;;3.83;2.73;;;;;;;;;;5043724;28;20451;-56
2023/10/24 08:01:12;;;;;;;3.70;2.90;;;;;;;;;;5039723;28;20935;-56
2023/10/24 08:03:38;;;;;;;4.60;3.00;;;;;;;;;;5044050;28;20405;-56
2023/10/24 08:06:04;;;;;;;3.57;2.80;;;;;;;;;;5041532;28;20409;-57
2023/10/24 08:08:30;;;;;;;3.58;2.63;;;;;;;;;;5040863;28;20414;-56
2023/10/24 08:10:55;;;;;;;4.40;2.90;;;;;;;;;;5044415;28;20405;-56
2023/10/24 08:13:20;;;;;;;3.53;2.40;;;;;;;;;;5040949;28;20392;-56
2023/10/24 08:15:48;;;;;;;4.40;2.80;;;;;;;;;;5039987;28;20496;-56
2023/10/24 08:18:13;;;;;;;3.90;2.58;;;;;;;;;;5046195;28;20459;-57
2023/10/24 08:20:38;;;;;;;3.60;2.70;;;;;;;;;;5046997;28;20405;-56
2023/10/24 08:23:04;;;;;;;3.90;2.80;;;;;;;;;;5046879;28;20413;-57
2023/10/24 08:25:31;;;;;;;4.10;3.08;;;;;;;;;;5048864;28;20520;-57
2023/10/24 08:27:56;;;;;;;4.78;3.25;;;;;;;;;;5048515;28;20422;-56
2023/10/24 08:30:21;;;;;;;4.83;3.20;;;;;;;;;;5039456;28;20860;-56
2023/10/24 08:32:47;;;;;;;5.68;3.42;;;;;;;;;;5047815;28;20394;-57
2023/10/24 08:35:12;;;;;;;4.93;3.20;;;;;;;;;;5047336;28;20413;-56
2023/10/24 08:37:37;;;;;;;5.57;3.90;;;;;;;;;;5044648;28;20476;-56
2023/10/24 08:40:03;;;;;;;5.40;3.80;;;;;;;;;;5047187;28;20772;-57
2023/10/24 08:42:29;;;;;;;7.07;4.28;;;;;;;;;;5047962;28;20393;-56
2023/10/24 08:44:54;;;;;;;6.00;4.23;;;;;;;;;;5044499;28;20496;-57
2023/10/24 08:47:20;;;;;;;5.68;3.90;;;;;;;;;;5046517;28;20820;-56
2023/10/24 08:49:45;;;;;;;6.32;4.30;;;;;;;;;;5046364;28;20467;-56
2023/10/24 08:52:11;;;;;;;5.97;4.33;;;;;;;;;;5045552;28;20456;-56
2023/10/24 08:54:36;;;;;;;7.03;4.47;;;;;;;;;;5042257;28;20472;-56
2023/10/24 08:57:02;;;;;;;8.00;4.60;;;;;;;;;;5044554;28;20398;-57
2023/10/24 08:59:28;;;;;;;6.37;4.50;;;;;;;;;;5044977;28;20402;-57
2023/10/24 09:01:54;;;;;;;7.10;4.63;;;;;;;;;;5051285;28;20412;-56
2023/10/24 09:04:19;;;;;;;6.63;4.90;;;;;;;;;;5048262;28;20410;-56
2023/10/24 09:06:46;;;;;;;7.40;4.70;;;;;;;;;;5044987;28;20435;-57
2023/10/24 09:09:12;;;;;;;6.78;4.90;;;;;;;;;;5046547;28;20416;-57
2023/10/24 09:12:02;;;;;;;7.57;5.10;;;;;;;;;;5045573;28;20394;-56
2023/10/24 09:14:28;;;;;;;8.18;5.65;;;;;;;;;;5045629;28;20868;-56
2023/10/24 09:16:54;;;;;;;7.03;5.10;;;;;;;;;;5045218;28;20417;-56
2023/10/24 09:19:19;;;;;;;8.15;5.30;;;;;;;;;;5045532;28;20394;-56
2023/10/24 09:21:45;;;;;;;7.47;5.17;;;;;;;;;;5039448;28;20411;-56
2023/10/24 09:24:12;;;;;;;7.30;5.27;;;;;;;;;;5044669;28;20417;-56
2023/10/24 09:26:38;;;;;;;6.38;4.63;;;;;;;;;;5046055;28;20421;-56
2023/10/24 09:29:03;;;;;;;8.83;5.40;;;;;;;;;;5046268;28;20445;-56
2023/10/24 09:31:28;;;;;;;7.47;5.20;;;;;;;;;;5044242;28;20420;-57
2023/10/24 09:33:54;;;;;;;7.37;5.07;;;;;;;;;;5046032;28;20421;-56
2023/10/24 09:36:24;;;;;;;6.33;4.60;;;;;;;;;;5046630;28;20402;-56
2023/10/24 09:38:49;;;;;;;7.63;4.43;;;;;;;;;;5044038;28;20409;-57
2023/10/24 09:41:14;;;;;;;8.23;4.70;;;;;;;;;;5043170;28;20416;-56
2023/10/24 09:43:41;;;;;;;6.55;4.57;;;;;;;;;;5050327;28;20481;-56
2023/10/24 09:46:06;;;;;;;6.75;4.63;;;;;;;;;;5046925;28;20390;-57
2023/10/24 09:48:32;;;;;;;7.00;4.83;;;;;;;;;;5048439;28;20425;-57
2023/10/24 09:50:57;;;;;;;7.00;4.57;;;;;;;;;;5050998;28;21112;-57
2023/10/24 09:53:22;;;;;;;6.80;4.47;;;;;;;;;;5043245;28;20401;-57
2023/10/24 09:55:48;;;;;;;6.22;4.50;;;;;;;;;;5042490;28;20484;-57
2023/10/24 09:58:15;;;;;;;5.55;4.00;;;;;;;;;;5050264;28;20408;-57
2023/10/24 10:00:40;;;;;;;5.72;3.90;;;;;;;;;;5053420;28;20936;-56
2023/10/24 10:03:06;;;;;;;6.40;3.87;;;;;;;;;;5059914;28;20399;-56
2023/10/24 10:05:31;;;;;;;6.87;4.07;;;;;;;;;;5048914;28;20486;-56
2023/10/24 10:07:57;;;;;;;6.40;4.15;;;;;;;;;;5065870;28;20399;-56
2023/10/24 10:10:23;;;;;;;6.73;4.00;;;;;;;;;;5061291;28;20939;-56
2023/10/24 10:12:48;;;;;;;6.03;4.03;;;;;;;;;;5065996;28;20473;-56
2023/10/24 10:15:15;;;;;;;6.37;3.93;;;;;;;;;;5068397;28;20431;-56
2023/10/24 10:17:50;;;;;;;5.63;4.00;;;;;;;;;;5055977;28;20393;-57
2023/10/24 10:20:16;;;;;;;6.23;3.93;;;;;;;;;;5052367;28;20401;-57
2023/10/24 10:22:41;;;;;;;6.63;3.92;;;;;;;;;;5052505;28;20440;-57
2023/10/24 10:25:13;;;;;;;5.73;3.70;;;;;;;;;;5052489;28;20785;-57
2023/10/24 10:27:38;;;;;;;7.10;3.60;;;;;;;;;;5035084;28;20393;-57
2023/10/24 10:30:07;;;;;;;6.00;3.93;;;;;;;;;;5051541;28;20405;-56
2023/10/24 10:32:33;;;;;;;6.15;3.35;;;;;;;;;;5047946;28;20390;-56
2023/10/24 10:34:59;;;;;;;5.20;3.35;;;;;;;;;;5049292;28;20413;-56
2023/10/24 10:37:30;;;;;;;6.20;3.20;;;;;;;;;;5051465;28;20386;-56
2023/10/24 10:40:18;;;;;;;4.82;3.28;;;;;;;;;;5033436;28;20403;-56
2023/10/24 10:42:44;;;;;;;5.40;3.10;;;;;;;;;;5061446;28;20392;-56
2023/10/24 10:45:25;;;;;;;4.82;3.13;;;;;;;;;;5072006;28;20764;-56
2023/10/24 10:47:51;;;;;;;6.13;2.90;;;;;;;;;;5039859;28;20500;-57
2023/10/24 10:50:24;;;;;;;4.47;3.00;;;;;;;;;;5050973;28;20447;-57
2023/10/24 10:52:57;;;;;;;4.90;3.20;;;;;;;;;;5052528;28;20417;-56
2023/10/24 10:55:26;;;;;;;4.88;2.85;;;;;;;;;;5050756;28;20392;-56
2023/10/24 10:58:03;;;;;;;4.72;3.08;;;;;;;;;;5033751;28;20481;-56
2023/10/24 11:00:31;;;;;;;5.50;2.85;;;;;;;;;;5051629;28;20462;-56
2023/10/24 11:02:58;;;;;;;5.70;3.10;;;;;;;;;;5034379;28;20394;-56
2023/10/24 11:05:35;;;;;;;4.20;2.78;;;;;;;;;;5050679;28;20397;-56
2023/10/24 11:08:02;;;;;;;5.25;2.67;;;;;;;;;;5051603;28;20879;-57
2023/10/24 11:10:47;;;;;;;3.90;2.75;;;;;;;;;;5047618;28;20446;-56
2023/10/24 11:13:29;;;;;;;4.87;3.00;;;;;;;;;;5034014;28;20414;-56
2023/10/24 11:15:55;;;;;;;5.63;2.72;;;;;;;;;;5014238;28;20758;-57
2023/10/24 11:18:20;;;;;;;5.40;2.73;;;;;;;;;;5040942;28;20378;-57
2023/10/24 11:20:45;;;;;;;5.47;2.93;;;;;;;;;;5034020;28;20402;-57
2023/10/24 11:23:11;;;;;;;4.78;2.90;;;;;;;;;;5033715;28;20421;-57
2023/10/24 11:25:36;;;;;;;5.20;2.80;;;;;;;;;;5051138;28;20755;-57
2023/10/24 11:28:05;;;;;;;5.13;3.10;;;;;;;;;;5033539;28;20401;-57
2023/10/24 11:30:30;;;;;;;4.10;2.80;;;;;;;;;;5050266;28;20398;-57
2023/10/24 11:32:56;;;;;;;4.90;2.90;;;;;;;;;;5051027;28;20476;-57
2023/10/24 11:35:22;;;;;;;5.40;3.10;;;;;;;;;;5050975;28;20385;-56
2023/10/24 11:37:47;;;;;;;5.80;3.43;;;;;;;;;;5051781;28;20407;-57
2023/10/24 11:40:13;;;;;;;4.60;2.80;;;;;;;;;;5050558;28;20431;-57
2023/10/24 11:42:38;;;;;;;5.50;3.10;;;;;;;;;;5051641;28;20425;-57
2023/10/24 11:45:04;;;;;;;4.82;3.00;;;;;;;;;;5050448;28;20452;-56
2023/10/24 11:47:29;;;;;;;4.00;2.57;;;;;;;;;;5045656;28;20405;-56
2023/10/24 11:49:55;;;;;;;4.40;2.60;;;;;;;;;;5048827;28;21111;-56
2023/10/24 11:52:20;;;;;;;4.78;2.55;;;;;;;;;;5048064;28;20417;-57
2023/10/24 11:54:51;;;;;;;4.00;2.70;;;;;;;;;;5050941;28;20424;-56
2023/10/24 11:57:17;;;;;;;4.25;2.50;;;;;;;;;;5048659;28;20414;-57
2023/10/24 11:59:42;;;;;;;5.43;2.63;;;;;;;;;;5048125;28;20412;-57
2023/10/24 12:02:07;;;;;;;4.88;2.50;;;;;;;;;;5045216;28;20912;-57
2023/10/24 12:04:33;;;;;;;3.73;2.20;;;;;;;;;;5048333;28;20394;-57
2023/10/24 12:07:02;;;;;;;4.37;2.40;;;;;;;;;;5047653;28;20501;-57
2023/10/24 12:09:36;;;;;;;5.03;2.58;;;;;;;;;;5045018;28;27663;-57
2023/10/24 12:12:01;;;;;;;4.07;2.40;;;;;;;;;;5047362;28;20397;-58
2023/10/24 12:14:27;;;;;;;5.03;2.20;;;;;;;;;;5047601;28;20416;-56
2023/10/24 12:16:52;;;;;;;5.80;2.70;;;;;;;;;;5030349;28;20409;-57
2023/10/24 12:19:17;;;;;;;4.47;2.50;;;;;;;;;;5046497;28;20424;-56
2023/10/24 12:21:43;;;;;;;4.88;2.58;;;;;;;;;;5046964;28;20402;-57
2023/10/24 12:24:08;;;;;;;5.67;2.90;;;;;;;;;;5046090;28;20495;-57
2023/10/24 12:26:35;;;;;;;4.07;2.60;;;;;;;;;;5046120;28;20616;-56
2023/10/24 12:29:00;;;;;;;4.13;2.58;;;;;;;;;;5047084;28;20413;-55
2023/10/24 12:31:25;;;;;;;5.80;2.70;;;;;;;;;;5047683;28;20397;-56
2023/10/24 12:33:50;;;;;;;5.15;2.83;;;;;;;;;;5045559;28;20452;-56
2023/10/24 12:36:16;;;;;;;4.73;2.80;;;;;;;;;;5046559;28;20397;-57
2023/10/24 12:38:42;;;;;;;4.00;2.40;;;;;;;;;;5047745;28;20386;-57
2023/10/24 12:41:07;;;;;;;4.15;2.30;;;;;;;;;;5045215;28;20903;-57
2023/10/24 12:43:33;;;;;;;5.80;2.80;;;;;;;;;;5046680;28;20405;-57
2023/10/24 12:45:58;;;;;;;3.80;2.28;;;;;;;;;;5046703;28;20463;-56
2023/10/24 12:48:24;;;;;;;3.77;2.20;;;;;;;;;;5045924;28;20393;-57
2023/10/24 12:50:49;;;;;;;3.87;1.70;;;;;;;;;;5045531;28;20761;-57
2023/10/24 12:53:14;;;;;;;2.07;1.50;;;;;;;;;;5047217;28;20405;-57
2023/10/24 12:55:40;;;;;;;2.63;1.60;;;;;;;;;;5047088;28;20397;-57
2023/10/24 12:58:05;;;;;;;3.03;1.70;;;;;;;;;;5044575;28;20405;-57
2023/10/24 13:00:31;;;;;;;3.83;1.90;;;;;;;;;;5046951;28;20496;-57
2023/10/24 13:02:57;;;;;;;3.03;1.90;;;;;;;;;;5046692;28;20401;-57
2023/10/24 13:05:22;;;;;;;3.57;1.80;;;;;;;;;;5044630;28;20725;-57
2023/10/24 13:07:47;;;;;;;3.30;1.80;;;;;;;;;;5047125;28;20903;-58
2023/10/24 13:10:14;;;;;;;2.57;1.80;;;;;;;;;;5045606;28;20409;-57
2023/10/24 13:12:40;;;;;;;3.20;1.90;;;;;;;;;;5045265;28;20409;-57
2023/10/24 13:15:05;;;;;;;4.13;1.97;;;;;;;;;;5045923;28;20405;-57
2023/10/24 13:17:30;;;;;;;3.67;1.90;;;;;;;;;;5046046;28;20926;-57
2023/10/24 13:19:56;;;;;;;5.47;2.43;;;;;;;;;;5046204;28;20417;-57
2023/10/24 13:22:22;;;;;;;3.87;2.33;;;;;;;;;;5048727;28;20409;-57
2023/10/24 13:24:49;;;;;;;4.25;2.22;;;;;;;;;;5048941;28;20479;-57
2023/10/24 13:27:14;;;;;;;4.40;2.10;;;;;;;;;;5044802;28;20390;-57
2023/10/24 13:29:39;;;;;;;3.90;2.03;;;;;;;;;;5046843;28;20498;-57
2023/10/24 13:32:05;;;;;;;3.63;2.00;;;;;;;;;;5045924;28;20559;-57
2023/10/24 13:34:30;;;;;;;3.57;1.90;;;;;;;;;;5045174;28;20415;-57
2023/10/24 13:36:56;;;;;;;4.53;2.13;;;;;;;;;;5046479;28;20409;-58
2023/10/24 13:39:21;;;;;;;3.17;2.00;;;;;;;;;;5045345;28;20393;-57
2023/10/24 13:41:47;;;;;;;3.63;2.00;;;;;;;;;;5050075;28;20394;-57
2023/10/24 13:44:12;;;;;;;3.22;1.80;;;;;;;;;;5046941;28;20491;-57
2023/10/24 13:46:38;;;;;;;3.78;2.10;;;;;;;;;;5046591;28;20490;-57
2023/10/24 13:49:03;;;;;;;2.97;2.07;;;;;;;;;;5044447;28;20413;-57
2023/10/24 13:51:29;;;;;;;3.75;2.20;;;;;;;;;;5046967;28;20409;-57
2023/10/24 13:53:54;;;;;;;4.27;2.20;;;;;;;;;;5045401;28;20485;-57
2023/10/24 13:56:20;;;;;;;3.80;2.07;;;;;;;;;;5043906;28;20386;-57
2023/10/24 13:58:45;;;;;;;3.57;2.00;;;;;;;;;;5046846;28;20408;-56
2023/10/24 14:01:10;;;;;;;3.43;1.97;;;;;;;;;;5053961;28;20412;-57
2023/10/24 14:03:35;;;;;;;3.53;1.80;;;;;;;;;;5059339;28;20483;-57
2023/10/24 14:06:01;;;;;;;3.85;1.70;;;;;;;;;;5060849;28;20496;-58
2023/10/24 14:08:27;;;;;;;2.23;1.43;;;;;;;;;;5061464;28;20419;-57
2023/10/24 14:10:52;;;;;;;2.97;1.50;;;;;;;;;;5061001;28;20807;-56
2023/10/24 14:13:18;;;;;;;2.87;1.73;;;;;;;;;;5058634;28;20762;-57
2023/10/24 14:15:43;;;;;;;2.40;1.50;;;;;;;;;;5062792;28;20392;-57
2023/10/24 14:18:09;;;;;;;2.83;1.60;;;;;;;;;;5061361;28;20411;-57
2023/10/24 14:20:34;;;;;;;3.85;1.73;;;;;;;;;;5057522;28;20835;-57
2023/10/24 14:22:59;;;;;;;2.70;1.53;;;;;;;;;;5062701;28;20450;-57
2023/10/24 14:25:25;;;;;;;2.93;1.37;;;;;;;;;;5061882;28;20464;-57
2023/10/24 14:27:51;;;;;;;3.07;1.50;;;;;;;;;;5057955;28;20462;-57
2023/10/24 14:30:16;;;;;;;4.15;1.88;;;;;;;;;;5064819;28;20714;-57
2023/10/24 14:32:41;;;;;;;2.93;1.57;;;;;;;;;;5066750;28;20836;-57
2023/10/24 14:35:07;;;;;;;3.60;1.60;;;;;;;;;;5061982;28;20399;-57